Terminal Aerodrome Forecast
Issued by NWS Newport/Morehead City, NC

Home | Current Version | Previous Version | Text Only | Print | Product List | Glossary Off
Versions: 1 2 3 4 5 6 7 8 9 10 11 12 13 14 15 16 17 18

819
FTUS42 KMHX 242335
TAFEWN
TAF
KEWN 242335Z 2500/2524 21010KT 6SM -SHRA VCTS SCT015CB BKN040
      TEMPO 2500/2502 VRB10G20KT 1SM +TSRA BKN006CB
     FM250200 21006KT 4SM SHRA VCTS SCT025CB OVC040
     FM250600 22006KT 4SM -SHRA VCTS SCT007 OVC020CB
     FM251400 26006KT P6SM VCSH BKN045
     FM251800 26006KT P6SM SCT050=

USA.gov is the U.S. government's official web portal to all federal, state and local government web resources and services.